Time;durP1;ratioP1;P1;durP2;ratioP2;P2;SDS_P1;SDS_P2;PMS_P1;PMS_P2;Temp;Humidity;BMP_temperature;BMP_pressure;BME280_temperature;BME280_humidity;BME280_pressure;Samples;Min_cycle;Max_cycle;Signal;HPM_P1;HPM_P2
2022/01/23 00:00:32;;;;;;;;;21.50;19.50;;;;;4.50;46.20;99755.72;6196224;28;99816;-71
2022/01/23 00:03:42;;;;;;;;;24.75;20.50;;;;;4.41;46.68;99757.53;6217443;28;96484;-68
2022/01/23 00:06:47;;;;;;;;;23.00;19.40;;;;;4.41;46.35;99762.03;6215623;28;97153;-68
2022/01/23 00:09:50;;;;;;;;;23.00;22.00;;;;;4.42;46.56;99761.03;6213040;28;96681;-70
2022/01/23 00:13:06;;;;;;;;;23.00;20.40;;;;;4.34;46.42;99741.34;6216498;28;96976;-69
2022/01/23 00:19:31;;;;;;;;;23.00;20.60;;;;;4.47;46.61;99759.56;6215558;28;99169;-68
2022/01/23 00:22:40;;;;;;;;;22.50;19.00;;;;;4.49;46.27;99756.75;6214350;28;96473;-69
2022/01/23 00:32:25;;;;;;;;;21.40;19.40;;;;;4.44;46.42;99759.88;6181801;28;97541;-68
2022/01/23 00:35:31;;;;;;;;;20.60;18.00;;;;;4.36;46.79;99760.69;6217286;28;98494;-70
2022/01/23 00:38:35;;;;;;;;;20.80;17.80;;;;;4.28;46.60;99762.50;6214720;28;98558;-70
2022/01/23 00:41:38;;;;;;;;;20.00;17.25;;;;;4.41;46.58;99773.53;6214311;28;96563;-68
2022/01/23 00:44:42;;;;;;;;;19.60;17.60;;;;;4.47;46.32;99764.06;6215098;28;96460;-68
2022/01/23 00:47:47;;;;;;;;;20.25;17.00;;;;;4.34;46.45;99760.03;6216320;28;97441;-69
2022/01/23 00:50:50;;;;;;;;;20.00;17.00;;;;;4.34;46.41;99761.84;6213212;28;97670;-70
2022/01/23 00:53:53;;;;;;;;;19.33;15.33;;;;;4.33;46.46;99754.84;6214746;28;96716;-70
2022/01/23 00:56:56;;;;;;;;;17.40;16.80;;;;;4.30;46.66;99760.50;6213696;28;97210;-69
2022/01/23 01:00:00;;;;;;;;;20.40;19.00;;;;;4.36;46.69;99760.69;6215306;28;96408;-69
2022/01/23 01:03:05;;;;;;;;;21.60;18.00;;;;;4.43;46.05;99755.53;6213314;28;97401;-70
2022/01/23 01:06:09;;;;;;;;;20.60;17.60;;;;;4.51;45.84;99760.91;6213892;28;97075;-68
2022/01/23 01:09:14;;;;;;;;;19.60;16.40;;;;;4.54;46.08;99743.75;6195029;28;98873;-67
2022/01/23 01:12:20;;;;;;;;;18.75;16.25;;;;;4.43;45.77;99722.66;6211467;28;98032;-69
2022/01/23 01:15:41;;;;;;;;;19.40;18.40;;;;;4.47;45.82;99745.38;6195473;28;97727;-70
2022/01/23 01:32:25;;;;;;;;;18.00;17.00;;;;;3.98;46.74;99733.66;6212923;28;97400;-68
2022/01/23 01:35:36;;;;;;;;;19.00;15.80;;;;;4.08;46.50;99755.72;6212960;28;96483;-69
2022/01/23 01:38:41;;;;;;;;;17.60;15.40;;;;;4.13;46.34;99756.91;6212778;28;99760;-68
2022/01/23 01:41:45;;;;;;;;;16.00;14.00;;;;;4.22;46.34;99755.09;6211505;28;96896;-70
2022/01/23 01:44:49;;;;;;;;;18.40;17.40;;;;;4.25;46.11;99758.28;6214768;28;96701;-68
2022/01/23 01:48:00;;;;;;;;;21.00;18.20;;;;;4.18;46.01;99753.75;6215061;28;97125;-69
2022/01/23 01:51:11;;;;;;;;;18.00;16.60;;;;;4.18;45.98;99741.25;6213321;28;96667;-68
2022/01/23 01:54:18;;;;;;;;;21.00;18.00;;;;;4.18;46.24;99748.44;6213423;28;97536;-69
2022/01/23 01:57:22;;;;;;;;;19.00;16.00;;;;;4.19;46.17;99750.09;6196848;28;99486;-69
2022/01/23 02:00:56;;;;;;;;;19.25;17.00;;;;;4.15;46.13;99756.75;6213816;28;96995;-68
2022/01/23 02:10:56;;;;;;;;;18.00;15.40;;;;;4.14;45.90;99755.94;6212405;28;96594;-67
2022/01/23 02:14:14;;;;;;;;;17.40;14.40;;;;;4.18;45.84;99756.44;6211316;28;96462;-67
2022/01/23 02:17:40;;;;;;;;;16.00;15.50;;;;;4.18;45.71;99757.28;6212399;28;96762;-69
2022/01/23 02:24:37;;;;;;;;;15.75;14.75;;;;;4.09;46.07;99736.03;6197275;28;97476;-69
2022/01/23 02:51:40;;;;;;;;;14.00;12.00;;;;;4.21;45.85;99772.13;6194897;28;96670;-69
2022/01/23 02:54:57;;;;;;;;;15.00;14.00;;;;;4.10;45.85;99777.75;6210555;28;96621;-68
2022/01/23 02:58:05;;;;;;;;;18.00;16.60;;;;;4.16;45.76;99771.75;6216752;28;96478;-70
2022/01/23 03:01:15;;;;;;;;;21.50;19.00;;;;;4.06;46.06;99781.72;6249799;27;96488;-69
2022/01/23 03:04:40;;;;;;;;;20.40;19.00;;;;;3.93;46.20;99780.31;6216870;28;96741;-68
2022/01/23 03:08:06;;;;;;;;;22.25;20.25;;;;;3.88;46.12;99785.28;6197430;28;96875;-67
2022/01/23 03:11:32;;;;;;;;;21.60;19.60;;;;;3.91;46.13;99787.63;6197074;28;97779;-68
2022/01/23 03:14:45;;;;;;;;;22.00;19.50;;;;;3.82;46.34;99787.72;6196363;28;98453;-69
2022/01/23 03:24:45;;;;;;;;;23.00;20.20;;;;;3.81;46.05;99791.41;6215948;28;97599;-68
2022/01/23 03:28:15;;;;;;;;;21.00;20.00;;;;;3.80;46.24;99790.59;6215494;28;97529;-69
2022/01/23 03:31:23;;;;;;;;;23.20;21.00;;;;;3.74;46.38;99795.69;6216371;28;96452;-69
2022/01/23 03:34:28;;;;;;;;;25.00;21.50;;;;;3.68;46.42;99789.16;6217053;28;96444;-67
2022/01/23 03:37:31;;;;;;;;;23.00;20.80;;;;;3.68;46.20;99790.97;6214690;28;98723;-70
2022/01/23 03:40:35;;;;;;;;;23.00;22.40;;;;;3.70;46.38;99791.66;6183010;28;97859;-68
2022/01/23 03:43:40;;;;;;;;;24.60;24.00;;;;;3.67;46.28;99786.63;6205321;28;97472;-69
2022/01/23 03:46:50;;;;;;;;;28.20;24.00;;;;;3.70;46.04;99775.66;6214583;28;97345;-69
2022/01/23 03:49:57;;;;;;;;;29.50;24.25;;;;;3.62;46.22;99783.59;6198656;28;98040;-68
2022/01/23 03:53:10;;;;;;;;;29.40;23.00;;;;;3.47;46.36;99775.31;6197659;28;97797;-69
2022/01/23 03:56:17;;;;;;;;;26.00;23.00;;;;;3.41;46.48;99773.28;6214431;28;97459;-69
2022/01/23 03:59:22;;;;;;;;;28.60;26.60;;;;;3.57;46.55;99791.25;6218126;28;97162;-68
2022/01/23 04:02:26;;;;;;;;;29.00;25.00;;;;;3.49;46.62;99774.19;6215801;28;97585;-69
2022/01/23 04:05:30;;;;;;;;;26.60;24.60;;;;;3.49;46.56;99776.84;6199526;28;99477;-68
2022/01/23 04:08:33;;;;;;;;;27.20;23.60;;;;;3.54;46.77;99781.72;6211430;28;96504;-69
2022/01/23 04:11:38;;;;;;;;;29.00;26.00;;;;;3.54;46.57;99781.72;6182302;28;98551;-68
2022/01/23 04:14:49;;;;;;;;;31.00;28.00;;;;;3.47;46.83;99785.97;6214627;28;98023;-69
2022/01/23 04:18:47;;;;;;;;;31.00;27.00;;;;;3.54;46.56;99786.22;6214253;28;96685;-68
2022/01/23 04:31:47;;;;;;;;;31.40;28.40;;;;;3.28;47.19;99810.97;6213839;28;96634;-67
2022/01/23 04:35:13;;;;;;;;;31.00;28.20;;;;;3.36;46.96;99816.41;6210067;28;97652;-68
2022/01/23 04:45:21;;;;;;;;;30.60;29.00;;;;;3.43;46.64;99813.94;6208618;28;97467;-68
2022/01/23 05:02:08;;;;;;;;;35.40;29.80;;;;;3.32;46.68;99836.31;6207027;28;96978;-68
2022/01/23 05:05:34;;;;;;;;;35.20;29.40;;;;;3.35;46.67;99841.38;6207907;28;97414;-69
2022/01/23 05:08:56;;;;;;;;;34.00;29.20;;;;;3.38;46.87;99849.06;6211556;28;97454;-69
2022/01/23 05:12:11;;;;;;;;;34.00;29.60;;;;;3.38;46.89;99845.53;6228966;28;96826;-69
2022/01/23 05:15:15;;;;;;;;;33.40;30.00;;;;;3.40;46.93;99839.09;6211221;28;96730;-69
2022/01/23 05:18:18;;;;;;;;;31.50;29.00;;;;;3.37;46.71;99842.03;6245297;27;97656;-68
2022/01/23 05:21:50;;;;;;;;;34.25;30.25;;;;;3.39;46.71;99850.72;6214840;28;97461;-69
2022/01/23 05:24:57;;;;;;;;;31.40;30.00;;;;;3.46;46.52;99850.97;6199200;28;96550;-68
2022/01/23 05:28:00;;;;;;;;;30.33;29.00;;;;;3.24;46.67;99808.78;6192078;28;98410;-69
2022/01/23 05:31:03;;;;;;;;;33.60;30.00;;;;;3.42;46.51;99839.75;6211432;28;96601;-68
2022/01/23 05:34:07;;;;;;;;;34.40;30.00;;;;;3.48;46.50;99840.97;6192985;28;96553;-69
2022/01/23 05:37:13;;;;;;;;;38.40;31.00;;;;;3.52;46.37;99847.66;6197596;28;96575;-68
2022/01/23 05:40:22;;;;;;;;;33.40;30.00;;;;;3.46;46.61;99848.31;6186582;28;97390;-68
2022/01/23 05:43:27;;;;;;;;;39.00;32.00;;;;;3.46;46.61;99840.31;6228204;28;97178;-68
2022/01/23 05:46:31;;;;;;;;;32.80;30.20;;;;;3.39;46.58;99848.06;6192746;28;97530;-68
2022/01/23 05:49:47;;;;;;;;;33.00;30.00;;;;;3.34;46.98;99861.00;6210441;28;98514;-68
2022/01/23 05:53:07;;;;;;;;;35.40;30.00;;;;;3.36;46.92;99850.22;6209673;28;96914;-69
2022/01/23 05:56:18;;;;;;;;;39.00;31.50;;;;;3.41;46.84;99872.75;6209904;28;98072;-68
2022/01/23 05:59:35;;;;;;;;;31.40;28.00;;;;;3.14;47.00;99853.31;6207684;28;97508;-69
2022/01/23 06:02:39;;;;;;;;;35.00;30.00;;;;;3.17;47.14;99856.53;6206076;28;97208;-68
2022/01/23 06:05:44;;;;;;;;;34.40;31.40;;;;;3.07;47.22;99862.91;6220346;28;96485;-68
2022/01/23 06:08:58;;;;;;;;;39.00;32.60;;;;;2.98;47.30;99856.66;6186577;28;97473;-68
2022/01/23 06:12:01;;;;;;;;;42.20;33.40;;;;;3.03;47.13;99857.84;6170471;28;96765;-68
2022/01/23 06:15:06;;;;;;;;;38.00;32.00;;;;;2.97;47.39;99860.31;6216649;28;96641;-68
2022/01/23 06:18:10;;;;;;;;;38.40;32.60;;;;;2.91;47.64;99847.56;6224677;28;97142;-68
2022/01/23 06:21:36;;;;;;;;;38.00;32.60;;;;;2.88;47.47;99880.66;6209653;28;98389;-68
2022/01/23 06:25:12;;;;;;;;;39.00;33.00;;;;;2.89;47.99;99873.50;6219850;28;96814;-67
2022/01/23 06:28:40;;;;;;;;;39.80;33.00;;;;;2.76;47.73;99873.88;6187660;28;97535;-68
2022/01/23 06:31:46;;;;;;;;;42.00;35.00;;;;;2.76;48.18;99873.03;6204614;28;96663;-69
2022/01/23 06:34:49;;;;;;;;;41.60;35.00;;;;;2.72;48.14;99880.47;6210237;28;96412;-67
2022/01/23 06:37:52;;;;;;;;;41.00;34.50;;;;;2.76;47.98;99886.34;6215341;28;96729;-69
2022/01/23 06:40:57;;;;;;;;;44.00;36.00;;;;;2.74;48.09;99891.81;6210221;28;96765;-68
2022/01/23 06:44:30;;;;;;;;;46.25;36.25;;;;;2.70;47.86;99900.22;6168563;28;97338;-68
2022/01/23 07:20:18;;;;;;;;;47.00;38.00;;;;;3.00;47.82;99937.25;6239668;22;97255;-67
2022/01/23 07:23:24;;;;;;;;;47.40;39.00;;;;;3.03;47.84;99944.94;6184783;28;96531;-69
2022/01/23 07:26:28;;;;;;;;;49.20;39.60;;;;;3.03;47.86;99953.75;6195092;28;96918;-70
2022/01/23 07:29:34;;;;;;;;;47.40;39.00;;;;;3.09;47.97;99970.13;6168895;28;96761;-68
2022/01/23 07:32:38;;;;;;;;;50.40;39.40;;;;;3.21;47.34;99975.16;6183943;28;98089;-69
2022/01/23 07:35:43;;;;;;;;;47.80;38.60;;;;;3.28;47.56;99999.34;6181613;28;96686;-69
2022/01/23 07:38:46;;;;;;;;;47.00;39.00;;;;;3.36;47.43;99978.16;6180698;28;97148;-69
2022/01/23 07:42:01;;;;;;;;;50.00;40.00;;;;;3.10;47.21;99924.72;6186308;28;97399;-69
2022/01/23 07:45:44;;;;;;;;;51.00;40.25;;;;;3.51;47.01;99979.31;6144836;28;96492;-67
2022/01/23 07:49:25;;;;;;;;;50.40;40.60;;;;;3.59;46.93;99986.56;6099861;28;97691;-67
2022/01/23 07:52:45;;;;;;;;;48.00;38.75;;;;;3.67;46.60;99991.97;6128356;28;97470;-68
2022/01/23 07:56:06;;;;;;;;;48.50;40.00;;;;;3.78;46.46;100000.59;6185678;28;97502;-68
2022/01/23 07:59:12;;;;;;;;;51.60;40.20;;;;;3.84;46.41;99996.50;6189287;28;96516;-68
2022/01/23 08:02:44;;;;;;;;;48.25;40.00;;;;;3.91;46.10;100003.72;6187466;28;97707;-68
2022/01/23 08:06:05;;;;;;;;;52.00;41.25;;;;;3.96;46.21;99999.78;6189892;28;96767;-68
2022/01/23 08:09:19;;;;;;;;;50.50;41.00;;;;;3.97;46.07;100015.63;6189332;28;96503;-67
2022/01/23 08:12:23;;;;;;;;;50.40;39.40;;;;;4.01;46.36;100021.53;6189194;28;97547;-67
2022/01/23 08:15:26;;;;;;;;;50.00;39.00;;;;;3.96;46.35;100021.13;6186684;28;98455;-67
2022/01/23 08:18:29;;;;;;;;;49.00;39.00;;;;;3.99;46.04;100029.66;6187234;28;97046;-67
2022/01/23 08:21:33;;;;;;;;;50.67;41.00;;;;;4.03;46.00;100039.03;6188139;28;96474;-68
2022/01/23 08:24:38;;;;;;;;;48.20;39.00;;;;;4.03;46.28;100032.84;6183039;28;97521;-67
2022/01/23 08:27:41;;;;;;;;;47.25;38.75;;;;;3.91;46.40;100035.75;6186176;28;97033;-67
2022/01/23 08:30:44;;;;;;;;;48.80;40.00;;;;;4.02;46.27;100034.69;6187762;28;96596;-67
2022/01/23 08:33:48;;;;;;;;;48.50;40.00;;;;;4.09;45.91;100037.59;6183173;28;97461;-68
2022/01/23 08:36:55;;;;;;;;;49.00;37.60;;;;;4.22;46.00;100044.22;6182444;28;97154;-67
2022/01/23 08:40:00;;;;;;;;;47.60;38.60;;;;;4.29;45.83;100037.28;6183398;28;98982;-68
2022/01/23 08:43:04;;;;;;;;;52.00;42.00;;;;;4.25;45.90;100040.44;6184628;28;96676;-68
2022/01/23 08:46:07;;;;;;;;;49.00;40.00;;;;;4.34;45.98;100044.84;6182909;28;97432;-67
2022/01/23 08:49:10;;;;;;;;;50.00;39.00;;;;;4.26;45.68;100029.56;6180836;28;97290;-69
2022/01/23 08:52:16;;;;;;;;;49.00;40.00;;;;;4.43;45.85;100043.91;6182503;28;100155;-69
2022/01/23 08:55:24;;;;;;;;;53.00;42.00;;;;;4.52;45.73;100051.00;6185649;28;96803;-69
2022/01/23 08:58:28;;;;;;;;;47.50;38.50;;;;;4.48;45.77;100046.13;6181535;28;98563;-69
2022/01/23 09:01:34;;;;;;;;;50.00;39.60;;;;;4.59;45.87;100059.22;6166812;28;99181;-68
2022/01/23 09:04:38;;;;;;;;;51.80;41.80;;;;;4.45;45.66;100047.25;6178451;28;98412;-68
2022/01/23 09:07:41;;;;;;;;;55.40;43.00;;;;;4.69;45.77;100068.00;6183046;28;97057;-68
2022/01/23 09:10:54;;;;;;;;;52.00;42.50;;;;;4.84;45.24;100081.63;6187731;28;96993;-68
2022/01/23 09:14:06;;;;;;;;;52.20;41.40;;;;;4.94;45.01;100083.19;6169155;28;98414;-69
2022/01/23 09:17:10;;;;;;;;;53.60;42.00;;;;;5.01;44.81;100076.22;6186447;28;97344;-68
2022/01/23 09:20:15;;;;;;;;;50.40;40.20;;;;;5.03;44.80;100070.75;6183449;28;97041;-69
2022/01/23 09:23:18;;;;;;;;;53.60;42.20;;;;;5.00;45.11;100063.84;6200285;28;96876;-68
2022/01/23 09:26:23;;;;;;;;;51.00;41.60;;;;;5.02;44.70;100061.88;6183473;28;97412;-69
2022/01/23 09:29:32;;;;;;;;;52.20;43.20;;;;;5.11;44.70;100055.59;6182522;28;96959;-69
2022/01/23 09:32:35;;;;;;;;;47.60;38.00;;;;;5.25;44.65;100054.16;6175902;28;96647;-69
2022/01/23 09:35:39;;;;;;;;;50.00;38.00;;;;;5.40;44.32;100059.72;6167674;28;97340;-70
2022/01/23 09:38:42;;;;;;;;;47.80;39.00;;;;;5.33;44.23;100045.31;6193819;28;98498;-71
2022/01/23 09:41:50;;;;;;;;;45.00;38.00;;;;;5.47;44.00;100050.91;6182207;28;97470;-71
2022/01/23 09:44:57;;;;;;;;;49.00;39.00;;;;;5.66;43.99;100052.50;6178235;28;96995;-70
2022/01/23 09:48:02;;;;;;;;;51.40;41.40;;;;;5.76;43.71;100042.50;6177462;28;97054;-71
2022/01/23 09:51:05;;;;;;;;;50.00;40.60;;;;;5.87;43.59;100055.59;6184176;28;97908;-71
2022/01/23 09:54:11;;;;;;;;;47.60;39.00;;;;;6.09;43.17;100067.53;6179681;28;98092;-71
2022/01/23 09:57:16;;;;;;;;;49.40;39.40;;;;;6.16;43.15;100067.72;6179222;28;98033;-71
2022/01/23 10:00:22;;;;;;;;;47.60;39.00;;;;;6.12;42.98;100071.72;6169324;28;97388;-70
2022/01/23 10:03:25;;;;;;;;;50.00;38.80;;;;;6.06;42.66;100076.72;6181886;28;97863;-70
2022/01/23 10:06:29;;;;;;;;;48.25;38.25;;;;;6.06;42.82;100076.72;6163486;28;99515;-70
2022/01/23 10:09:33;;;;;;;;;47.40;37.00;;;;;6.09;42.93;100083.59;6180527;28;97560;-70
2022/01/23 10:12:40;;;;;;;;;45.00;37.80;;;;;6.15;42.89;100084.78;6179793;28;97616;-71
2022/01/23 10:15:44;;;;;;;;;48.40;38.40;;;;;6.05;42.81;100055.50;6179151;28;97156;-70
2022/01/23 10:18:48;;;;;;;;;47.00;36.00;;;;;6.11;42.36;100070.88;6179536;28;97504;-70
2022/01/23 10:21:53;;;;;;;;;47.20;38.40;;;;;6.05;42.70;100079.56;6180159;28;97678;-70
2022/01/23 10:25:08;;;;;;;;;47.00;37.00;;;;;6.03;42.88;100073.53;6182278;28;97598;-70
2022/01/23 10:28:17;;;;;;;;;45.80;37.00;;;;;6.13;42.81;100076.06;6183410;28;97235;-71
2022/01/23 10:31:20;;;;;;;;;45.00;35.00;;;;;6.28;42.50;100077.09;6165549;28;97019;-70
2022/01/23 10:34:41;;;;;;;;;45.00;36.25;;;;;6.24;42.51;100070.41;6179456;28;97381;-71
2022/01/23 10:37:45;;;;;;;;;45.00;36.75;;;;;6.22;42.57;100065.22;6181847;28;96597;-71
2022/01/23 10:40:52;;;;;;;;;45.80;37.20;;;;;6.35;42.74;100062.88;6184589;28;96556;-71
2022/01/23 10:47:43;;;;;;;;;41.25;33.50;;;;;6.68;42.06;100057.53;6167561;28;97038;-72
2022/01/23 10:50:46;;;;;;;;;45.00;36.00;;;;;6.76;42.10;100069.09;6184033;28;97482;-71
2022/01/23 10:54:22;;;;;;;;;43.40;35.00;;;;;6.71;42.15;100065.22;6184471;28;97154;-71
2022/01/23 10:57:34;;;;;;;;;41.50;35.00;;;;;6.84;41.83;100055.66;6134842;28;97488;-69
2022/01/23 11:00:40;;;;;;;;;40.00;35.00;;;;;6.73;42.00;100020.34;6117141;28;97423;-71
2022/01/23 11:04:04;;;;;;;;;43.50;36.00;;;;;6.87;41.95;100049.16;6116967;28;96927;-71
2022/01/23 11:07:08;;;;;;;;;40.50;33.25;;;;;6.82;41.80;100049.66;6131974;28;97102;-70
2022/01/23 11:10:13;;;;;;;;;45.60;35.20;;;;;6.81;41.97;100056.00;6130970;28;97728;-71
2022/01/23 11:20:00;;;;;;;;;45.40;36.00;;;;;6.95;41.92;100049.13;6129596;28;97481;-70
2022/01/23 11:23:15;;;;;;;;;43.00;35.50;;;;;7.09;41.46;100048.41;6132926;28;97150;-71
2022/01/23 11:26:18;;;;;;;;;45.00;34.00;;;;;7.13;41.45;100048.94;6135937;28;97410;-71
2022/01/23 11:29:22;;;;;;;;;47.40;36.00;;;;;7.22;41.45;100047.91;6118498;28;97394;-71
2022/01/23 11:32:30;;;;;;;;;47.00;38.50;;;;;7.28;41.28;100045.34;6172652;28;96668;-70
2022/01/23 11:35:34;;;;;;;;;42.00;33.00;;;;;7.47;41.01;100046.81;6171086;28;98338;-70
2022/01/23 11:38:39;;;;;;;;;45.00;36.00;;;;;7.66;40.59;100056.31;6187374;28;98358;-70
2022/01/23 11:55:30;;;;;;;;;40.40;33.00;;;;;7.61;40.41;100074.78;6187336;28;96723;-70
2022/01/23 11:58:37;;;;;;;;;42.25;34.75;;;;;7.65;40.48;100074.25;6170530;28;99621;-71
2022/01/23 12:01:43;;;;;;;;;48.60;39.20;;;;;7.59;40.85;100082.16;6190252;28;97576;-71
2022/01/23 12:05:32;;;;;;;;;50.00;40.00;;;;;7.46;40.84;100082.72;6176146;28;97655;-70
2022/01/23 12:08:37;;;;;;;;;50.00;40.00;;;;;7.35;40.89;100075.84;6170519;28;96928;-70
2022/01/23 12:11:46;;;;;;;;;53.00;40.60;;;;;7.38;41.25;100075.50;6187334;28;98488;-70
2022/01/23 12:18:15;;;;;;;;;50.00;39.60;;;;;7.50;41.25;100070.63;6165113;28;96521;-71
2022/01/23 12:21:29;;;;;;;;;49.60;40.20;;;;;7.40;41.29;100064.59;6166492;28;97220;-71
2022/01/23 12:24:49;;;;;;;;;51.40;40.40;;;;;7.32;41.48;100060.13;6188358;28;96923;-70
2022/01/23 12:28:28;;;;;;;;;51.00;40.40;;;;;7.29;41.44;100073.84;6183500;28;97632;-70
2022/01/23 12:31:31;;;;;;;;;52.40;41.00;;;;;7.31;41.31;100076.38;6120623;28;98886;-71
2022/01/23 12:34:50;;;;;;;;;52.20;40.20;;;;;7.47;41.28;100083.53;6120500;28;96819;-72
2022/01/23 12:38:06;;;;;;;;;50.00;41.00;;;;;7.56;41.16;100085.19;6105593;28;97941;-70
2022/01/23 12:41:24;;;;;;;;;48.40;38.00;;;;;7.67;40.75;100079.44;6113765;28;98613;-71
2022/01/23 12:44:35;;;;;;;;;49.50;40.00;;;;;7.62;40.79;100088.03;6108264;28;98757;-70
2022/01/23 12:47:38;;;;;;;;;52.00;39.00;;;;;7.63;40.93;100086.16;6117759;28;99704;-70
2022/01/23 12:50:45;;;;;;;;;49.00;40.00;;;;;7.62;40.77;100088.03;6105510;28;97919;-70
2022/01/23 12:54:11;;;;;;;;;49.50;40.75;;;;;7.70;40.90;100098.72;6120290;28;98743;-73
2022/01/23 12:57:18;;;;;;;;;50.40;41.00;;;;;7.68;40.66;100091.84;6117281;28;98108;-71
2022/01/23 13:00:25;;;;;;;;;47.60;38.00;;;;;7.58;40.91;100086.69;6131937;28;97647;-71
2022/01/23 13:03:29;;;;;;;;;48.20;39.00;;;;;7.53;41.06;100074.78;6184928;28;97354;-72
2022/01/23 13:06:34;;;;;;;;;52.00;40.00;;;;;7.61;41.22;100091.72;6186933;28;96728;-71
2022/01/23 13:09:44;;;;;;;;;45.20;37.60;;;;;7.61;41.13;100097.09;6185787;28;98552;-72
2022/01/23 13:12:54;;;;;;;;;53.00;41.00;;;;;7.58;40.92;100086.69;6199464;28;97210;-72
2022/01/23 13:19:45;;;;;;;;;52.00;40.00;;;;;7.38;41.16;100080.03;6175746;28;97422;-70
2022/01/23 13:30:14;;;;;;;;;52.00;40.00;;;;;7.25;41.64;100107.41;6183693;28;97498;-71
2022/01/23 13:33:22;;;;;;;;;51.20;41.20;;;;;7.23;41.85;100106.72;6190104;28;97811;-70
2022/01/23 13:36:26;;;;;;;;;51.60;41.00;;;;;7.23;41.77;100100.53;6183043;28;97604;-71
2022/01/23 13:39:32;;;;;;;;;50.20;41.00;;;;;7.14;42.04;100097.03;6183708;28;97080;-70
2022/01/23 13:42:52;;;;;;;;;56.25;42.75;;;;;7.15;42.29;100098.69;6186070;28;96775;-70
2022/01/23 13:52:56;;;;;;;;;57.00;43.00;;;;;6.80;42.86;100094.53;6119896;28;96951;-70
2022/01/23 13:59:26;;;;;;;;;49.00;40.00;;;;;6.67;42.89;100082.66;6183575;28;97436;-71
2022/01/23 14:02:34;;;;;;;;;49.60;40.60;;;;;6.64;43.30;100107.97;6186503;28;97121;-70
2022/01/23 14:05:37;;;;;;;;;50.00;42.00;;;;;6.51;43.55;100096.88;6184403;28;96994;-71
2022/01/23 14:08:41;;;;;;;;;52.60;42.00;;;;;6.51;43.73;100105.75;6181405;28;96862;-71
2022/01/23 14:11:46;;;;;;;;;50.00;41.20;;;;;6.28;43.82;100077.94;6154043;28;99614;-71
2022/01/23 14:14:54;;;;;;;;;52.60;43.00;;;;;6.64;43.65;100107.97;6167758;28;98132;-71
2022/01/23 14:18:01;;;;;;;;;55.33;42.33;;;;;6.69;43.55;100110.97;6168620;28;97037;-71
2022/01/23 14:21:09;;;;;;;;;54.00;43.50;;;;;6.66;43.73;100113.97;6166176;28;97166;-71
2022/01/23 14:24:12;;;;;;;;;55.80;43.60;;;;;6.70;43.67;100112.63;6188169;28;97739;-71
2022/01/23 14:27:21;;;;;;;;;55.00;42.00;;;;;6.71;43.60;100119.66;6185446;28;98102;-70
2022/01/23 14:30:27;;;;;;;;;50.80;41.00;;;;;6.71;44.03;100127.72;6185885;28;98465;-70
2022/01/23 14:33:34;;;;;;;;;54.20;42.60;;;;;6.75;43.66;100120.16;6182065;28;96929;-70
2022/01/23 14:36:58;;;;;;;;;55.40;41.60;;;;;6.79;43.69;100126.91;6185902;28;98425;-70
2022/01/23 14:40:10;;;;;;;;;50.80;41.00;;;;;6.81;43.64;100128.38;6186300;28;97508;-71
2022/01/23 14:43:13;;;;;;;;;50.00;41.00;;;;;6.87;43.59;100130.41;6182595;28;97367;-71
2022/01/23 14:46:17;;;;;;;;;50.00;40.40;;;;;6.92;43.52;100137.94;6185223;28;97589;-70
2022/01/23 14:49:25;;;;;;;;;48.00;39.00;;;;;6.93;43.70;100142.31;6185541;28;96892;-71
2022/01/23 14:52:28;;;;;;;;;53.00;41.00;;;;;6.89;43.62;100143.66;6186520;28;96468;-71
2022/01/23 14:55:31;;;;;;;;;54.00;43.00;;;;;6.89;43.69;100147.16;6203969;28;96704;-72
2022/01/23 14:58:36;;;;;;;;;50.00;40.00;;;;;6.95;43.71;100149.16;6187990;28;97111;-70
2022/01/23 15:01:41;;;;;;;;;47.60;37.80;;;;;6.95;43.73;100151.84;6185577;28;97593;-70
2022/01/23 15:04:47;;;;;;;;;47.00;38.00;;;;;6.98;43.80;100153.38;6190314;28;97225;-70
2022/01/23 15:07:52;;;;;;;;;32.60;30.00;;;;;7.03;43.41;100168.94;6188284;28;97819;-70
2022/01/23 15:10:59;;;;;;;;;31.40;28.60;;;;;7.02;43.18;100165.44;6188343;28;96670;-72
2022/01/23 15:14:04;;;;;;;;;28.00;25.20;;;;;7.02;42.95;100170.78;6190801;28;96538;-70
2022/01/23 15:17:07;;;;;;;;;26.50;24.25;;;;;7.01;43.00;100176.31;6190332;28;96446;-71
2022/01/23 15:20:12;;;;;;;;;25.40;22.40;;;;;7.02;42.96;100180.69;6188180;28;98394;-71
2022/01/23 15:23:17;;;;;;;;;25.80;21.80;;;;;6.95;43.11;100173.28;6190530;28;96448;-70
2022/01/23 15:26:20;;;;;;;;;26.40;24.00;;;;;6.99;43.24;100179.16;6168141;28;97385;-71
2022/01/23 15:29:29;;;;;;;;;22.00;20.25;;;;;7.06;43.00;100187.38;6166074;28;97135;-72
2022/01/23 15:32:32;;;;;;;;;23.75;21.50;;;;;7.06;42.89;100188.22;6177747;28;98619;-71
2022/01/23 15:35:46;;;;;;;;;22.60;21.00;;;;;7.01;42.94;100187.03;6189421;28;97475;-72
2022/01/23 15:38:49;;;;;;;;;23.25;21.00;;;;;6.95;42.75;100189.38;6183313;28;97689;-72
2022/01/23 15:41:53;;;;;;;;;21.60;19.20;;;;;6.93;43.32;100195.94;6161788;28;99628;-72
2022/01/23 15:44:56;;;;;;;;;26.00;24.00;;;;;6.95;43.43;100210.00;6187965;28;97839;-73
2022/01/23 15:47:59;;;;;;;;;27.00;24.00;;;;;6.93;43.42;100212.00;6181021;28;96973;-72
2022/01/23 15:51:04;;;;;;;;;25.60;22.00;;;;;6.91;43.29;100217.53;6175831;28;98383;-71
2022/01/23 15:54:07;;;;;;;;;27.00;24.40;;;;;6.91;43.37;100222.06;6190639;28;97477;-70
2022/01/23 15:57:11;;;;;;;;;35.60;30.60;;;;;6.93;43.65;100230.78;6186657;28;97665;-71
2022/01/23 16:00:16;;;;;;;;;32.00;27.00;;;;;6.93;43.73;100228.09;6181708;28;97527;-71
2022/01/23 16:03:23;;;;;;;;;28.00;25.00;;;;;6.91;43.55;100233.63;6184324;28;97978;-70
2022/01/23 16:06:28;;;;;;;;;29.00;25.40;;;;;6.94;43.68;100235.97;6191004;28;98955;-70
2022/01/23 16:09:31;;;;;;;;;39.40;32.60;;;;;6.95;43.75;100236.81;6189145;28;96747;-70
2022/01/23 16:12:37;;;;;;;;;32.00;28.00;;;;;6.93;43.46;100228.94;6201356;28;97529;-70
2022/01/23 16:15:42;;;;;;;;;48.40;38.00;;;;;6.91;43.84;100238.97;6185452;28;96875;-71
2022/01/23 16:18:46;;;;;;;;;52.40;41.80;;;;;6.86;43.95;100238.63;6183103;28;97618;-71
2022/01/23 16:21:54;;;;;;;;;53.40;42.80;;;;;6.87;44.14;100236.78;6176093;28;97432;-71
2022/01/23 16:24:58;;;;;;;;;54.20;42.20;;;;;6.82;44.18;100237.28;6176431;28;97169;-70
2022/01/23 16:28:01;;;;;;;;;53.00;42.00;;;;;6.77;44.45;100236.09;6168769;28;97930;-71
2022/01/23 16:31:05;;;;;;;;;53.60;42.00;;;;;6.75;44.54;100235.41;6188865;28;97228;-71
2022/01/23 16:34:09;;;;;;;;;52.00;42.20;;;;;6.78;44.62;100241.31;6188202;28;96596;-70
2022/01/23 16:37:13;;;;;;;;;48.80;38.80;;;;;6.73;44.65;100235.59;6181635;28;98968;-71
2022/01/23 16:40:16;;;;;;;;;42.00;34.40;;;;;6.68;44.47;100229.91;6171187;28;97913;-71
2022/01/23 16:43:20;;;;;;;;;42.00;35.00;;;;;6.71;44.49;100234.06;6186841;28;97263;-71
2022/01/23 16:46:23;;;;;;;;;32.00;27.20;;;;;6.71;43.85;100244.78;6182184;28;97318;-71
2022/01/23 16:49:26;;;;;;;;;49.60;39.00;;;;;6.71;44.63;100245.63;6201210;28;96653;-72
2022/01/23 16:52:31;;;;;;;;;55.00;41.40;;;;;6.70;44.79;100243.09;6187423;28;97779;-70
2022/01/23 16:55:34;;;;;;;;;53.20;42.80;;;;;6.66;44.90;100241.78;6180995;28;98826;-71
2022/01/23 16:58:38;;;;;;;;;52.00;42.00;;;;;6.60;44.88;100239.75;6179631;28;97303;-71
2022/01/23 17:01:46;;;;;;;;;53.00;42.00;;;;;6.47;45.29;100237.53;6187851;28;97081;-71
2022/01/23 17:04:50;;;;;;;;;54.00;42.60;;;;;6.41;45.35;100249.72;6183811;28;96916;-71
2022/01/23 17:07:54;;;;;;;;;54.60;43.00;;;;;6.33;45.50;100238.16;6185925;28;98049;-70
2022/01/23 17:10:58;;;;;;;;;55.25;44.25;;;;;6.31;45.62;100248.19;6181647;28;96839;-71
2022/01/23 17:14:02;;;;;;;;;53.50;44.00;;;;;6.25;45.82;100236.28;6198103;28;97009;-71
2022/01/23 17:17:05;;;;;;;;;57.20;44.00;;;;;6.29;45.72;100248.34;6183775;28;99537;-71
2022/01/23 17:20:09;;;;;;;;;57.20;44.20;;;;;6.31;45.59;100251.69;6182712;28;96997;-71
2022/01/23 17:23:14;;;;;;;;;58.00;45.00;;;;;6.36;45.74;100261.94;6182211;28;97475;-71
2022/01/23 17:26:18;;;;;;;;;55.25;43.00;;;;;6.39;45.67;100259.78;6182969;28;96851;-70